createdAt,value
2023-03-22T00:00:01.617Z,13.00
2023-03-22T00:02:33.130Z,13.00
2023-03-22T00:05:02.057Z,13.00
2023-03-22T00:07:31.479Z,13.00
2023-03-22T00:09:59.636Z,13.00
2023-03-22T00:12:27.976Z,13.00
2023-03-22T00:14:56.165Z,13.00
2023-03-22T00:17:26.039Z,13.00
2023-03-22T00:19:55.646Z,13.10
2023-03-22T00:22:24.949Z,13.10
2023-03-22T00:24:53.111Z,13.10
2023-03-22T00:27:21.270Z,13.10
2023-03-22T00:29:49.464Z,13.10
2023-03-22T00:32:17.663Z,13.10
2023-03-22T00:34:46.106Z,13.10
2023-03-22T00:37:17.889Z,13.00
2023-03-22T00:39:46.262Z,13.10
2023-03-22T00:42:14.452Z,13.10
2023-03-22T00:44:42.809Z,13.10
2023-03-22T00:47:11.184Z,13.10
2023-03-22T00:49:39.357Z,13.10
2023-03-22T00:52:07.530Z,13.20
2023-03-22T00:54:37.109Z,13.10
2023-03-22T00:57:05.571Z,13.10
2023-03-22T00:59:38.512Z,13.20
2023-03-22T01:02:07.582Z,13.20
2023-03-22T01:04:36.471Z,13.20
2023-03-22T01:07:07.647Z,13.10
2023-03-22T01:09:37.273Z,13.10
2023-03-22T01:12:05.757Z,13.10
2023-03-22T01:14:33.904Z,13.10
2023-03-22T01:17:02.174Z,13.10
2023-03-22T01:19:30.946Z,13.10
2023-03-22T01:21:59.223Z,13.10
2023-03-22T01:24:27.432Z,13.10
2023-03-22T01:26:57.019Z,13.10
2023-03-22T01:29:25.994Z,13.10
2023-03-22T01:31:54.480Z,13.10
2023-03-22T01:34:23.376Z,13.20
2023-03-22T01:36:51.533Z,13.10
2023-03-22T01:39:19.785Z,13.20
2023-03-22T01:41:48.043Z,13.20
2023-03-22T01:44:20.842Z,13.10
2023-03-22T01:46:50.732Z,13.10
2023-03-22T01:49:26.111Z,13.20
2023-03-22T01:51:56.753Z,13.10
2023-03-22T01:54:30.738Z,13.10
2023-03-22T01:56:59.046Z,13.10
2023-03-22T01:59:29.013Z,13.00
2023-03-22T02:02:00.092Z,13.00
2023-03-22T02:04:34.021Z,13.00
2023-03-22T02:07:09.572Z,13.00
2023-03-22T02:09:41.543Z,13.00
2023-03-22T02:12:22.364Z,12.90
2023-03-22T02:15:05.048Z,12.90
2023-03-22T02:17:51.348Z,12.90
2023-03-22T02:20:57.811Z,12.90
2023-03-22T02:24:09.103Z,12.90
2023-03-22T02:27:07.449Z,12.90
2023-03-22T02:29:44.910Z,12.90
2023-03-22T02:32:54.100Z,12.90
2023-03-22T02:35:34.620Z,12.90
2023-03-22T02:38:36.672Z,12.80
2023-03-22T02:41:14.511Z,12.80
2023-03-22T02:43:52.370Z,12.80
2023-03-22T02:46:26.508Z,12.70
2023-03-22T02:49:03.192Z,12.80
2023-03-22T02:51:37.917Z,12.80
2023-03-22T02:54:12.413Z,12.80
2023-03-22T02:56:45.787Z,12.80
2023-03-22T02:59:15.898Z,12.80
2023-03-22T03:01:48.828Z,12.70
2023-03-22T03:04:20.594Z,12.70
2023-03-22T03:06:51.989Z,12.70
2023-03-22T03:09:21.776Z,12.70
2023-03-22T03:11:53.644Z,12.70
2023-03-22T03:14:27.643Z,12.70
2023-03-22T03:17:07.462Z,12.60
2023-03-22T03:19:42.085Z,12.60
2023-03-22T03:22:27.356Z,12.60
2023-03-22T03:25:02.904Z,12.60
2023-03-22T03:27:38.454Z,12.60
2023-03-22T03:30:11.538Z,12.60
2023-03-22T03:32:46.172Z,12.60
2023-03-22T03:35:23.449Z,12.50
2023-03-22T03:37:54.866Z,12.50
2023-03-22T03:40:27.162Z,12.50
2023-03-22T03:42:58.981Z,12.60
2023-03-22T03:45:27.374Z,12.50
2023-03-22T03:47:59.582Z,12.50
2023-03-22T03:50:28.653Z,12.50
2023-03-22T03:52:57.712Z,12.50
2023-03-22T03:55:27.135Z,12.50
2023-03-22T03:57:56.729Z,12.50
2023-03-22T04:00:25.012Z,12.50
2023-03-22T04:02:53.285Z,12.40
2023-03-22T04:05:21.525Z,12.50
2023-03-22T04:07:49.720Z,12.40
2023-03-22T04:10:18.130Z,12.30
2023-03-22T04:12:46.349Z,12.30
2023-03-22T04:15:16.369Z,12.30
2023-03-22T04:17:44.574Z,12.20
2023-03-22T04:20:13.807Z,12.20
2023-03-22T04:22:43.058Z,12.20
2023-03-22T04:25:14.127Z,12.20
2023-03-22T04:27:43.402Z,12.20
2023-03-22T04:30:18.770Z,12.20
2023-03-22T04:32:49.062Z,12.20
2023-03-22T04:35:17.654Z,12.00
2023-03-22T04:37:45.925Z,12.10
2023-03-22T04:40:17.089Z,12.00
2023-03-22T04:42:46.090Z,12.00
2023-03-22T04:45:15.452Z,11.90
2023-03-22T04:47:43.769Z,11.90
2023-03-22T04:50:13.489Z,11.80
2023-03-22T04:52:41.729Z,11.80
2023-03-22T04:55:10.462Z,11.70
2023-03-22T04:57:38.664Z,11.70
2023-03-22T05:00:10.187Z,11.70
2023-03-22T05:02:41.488Z,11.60
2023-03-22T05:05:10.295Z,11.60
2023-03-22T05:07:40.197Z,11.50
2023-03-22T05:10:09.573Z,11.50
2023-03-22T05:12:37.841Z,11.50
2023-03-22T05:15:07.237Z,11.60
2023-03-22T05:17:35.609Z,11.50
2023-03-22T05:20:09.392Z,11.50
2023-03-22T05:22:40.575Z,11.50
2023-03-22T05:25:10.378Z,11.50
2023-03-22T05:27:38.919Z,11.50
2023-03-22T05:30:09.720Z,11.50
2023-03-22T05:32:42.944Z,11.50
2023-03-22T05:35:11.878Z,11.50
2023-03-22T05:37:41.701Z,11.50
2023-03-22T05:40:10.913Z,11.50
2023-03-22T05:42:39.193Z,11.50
2023-03-22T05:45:08.659Z,11.50
2023-03-22T05:47:39.291Z,11.50
2023-03-22T05:50:09.446Z,11.60
2023-03-22T05:52:38.932Z,11.60
2023-03-22T05:55:09.297Z,11.60
2023-03-22T05:57:37.561Z,11.60
2023-03-22T06:00:11.087Z,11.60
2023-03-22T06:02:39.302Z,11.70
2023-03-22T06:05:08.362Z,11.80
2023-03-22T06:07:36.766Z,11.80
2023-03-22T06:10:05.424Z,11.80
2023-03-22T06:12:35.557Z,11.90
2023-03-22T06:15:04.581Z,11.90
2023-03-22T06:17:33.066Z,12.00
2023-03-22T06:20:01.344Z,12.00
2023-03-22T06:22:33.253Z,12.00
2023-03-22T06:25:01.519Z,12.10
2023-03-22T06:27:29.956Z,12.10
2023-03-22T06:29:59.634Z,12.20
2023-03-22T06:32:28.230Z,12.20
2023-03-22T06:34:56.867Z,12.20
2023-03-22T06:37:25.450Z,12.30
2023-03-22T06:39:53.679Z,12.30
2023-03-22T06:42:21.902Z,12.40
2023-03-22T06:44:50.287Z,12.40
2023-03-22T06:47:19.940Z,12.50
2023-03-22T06:49:48.218Z,12.50
2023-03-22T06:52:16.459Z,12.60
2023-03-22T06:54:44.707Z,12.60
2023-03-22T06:57:13.029Z,12.70
2023-03-22T06:59:41.446Z,12.80
2023-03-22T07:02:12.988Z,12.90
2023-03-22T07:04:42.717Z,12.90
2023-03-22T07:07:11.037Z,13.00
2023-03-22T07:09:40.160Z,13.00
2023-03-22T07:12:08.517Z,13.00
2023-03-22T07:14:36.876Z,13.10
2023-03-22T07:17:05.098Z,13.10
2023-03-22T07:19:33.599Z,13.20
2023-03-22T07:22:03.238Z,13.10
2023-03-22T07:24:31.623Z,13.10
2023-03-22T07:26:59.828Z,13.10
2023-03-22T07:29:28.066Z,13.10
2023-03-22T07:31:56.285Z,13.10
2023-03-22T07:34:24.472Z,13.20
2023-03-22T07:36:52.869Z,13.20
2023-03-22T07:39:24.718Z,13.20
2023-03-22T07:41:54.467Z,13.30
2023-03-22T07:44:23.222Z,13.30
2023-03-22T07:46:52.425Z,13.30
2023-03-22T07:49:21.314Z,13.40
2023-03-22T07:51:49.512Z,13.40
2023-03-22T07:54:32.139Z,13.50
2023-03-22T07:57:03.124Z,13.70
2023-03-22T07:59:31.466Z,13.60
2023-03-22T08:01:59.942Z,13.60
2023-03-22T08:04:28.425Z,13.70
2023-03-22T08:06:59.946Z,13.70
2023-03-22T08:09:28.566Z,13.70
2023-03-22T08:11:56.795Z,13.80
2023-03-22T08:14:35.884Z,13.80
2023-03-22T08:17:04.839Z,13.90
2023-03-22T08:19:33.675Z,14.00
2023-03-22T08:22:02.199Z,14.10
2023-03-22T08:24:30.572Z,14.20
2023-03-22T08:26:58.806Z,14.30
2023-03-22T08:29:28.716Z,14.40
2023-03-22T08:32:01.976Z,14.40
2023-03-22T08:34:31.271Z,14.50
2023-03-22T08:36:59.535Z,14.60
2023-03-22T08:39:27.937Z,14.60
2023-03-22T08:41:56.216Z,14.60
2023-03-22T08:44:24.462Z,14.70
2023-03-22T08:46:54.114Z,14.70
2023-03-22T08:49:22.518Z,14.70
2023-03-22T08:51:50.823Z,14.80
2023-03-22T08:54:19.106Z,14.80
2023-03-22T08:56:48.203Z,14.80
2023-03-22T08:59:16.410Z,14.90
2023-03-22T09:01:44.745Z,15.00
2023-03-22T09:04:16.878Z,15.00
2023-03-22T09:06:46.857Z,15.00
2023-03-22T09:09:15.399Z,14.90
2023-03-22T09:11:44.766Z,14.90
2023-03-22T09:14:13.039Z,14.80
2023-03-22T09:16:41.323Z,14.70
2023-03-22T09:19:09.808Z,14.70
2023-03-22T09:21:39.451Z,14.80
2023-03-22T09:24:08.607Z,14.70
2023-03-22T09:26:37.613Z,14.70
2023-03-22T09:29:05.980Z,14.90
2023-03-22T09:31:34.727Z,14.70
2023-03-22T09:34:03.279Z,14.70
2023-03-22T09:36:32.284Z,14.70
2023-03-22T09:39:05.389Z,14.80
2023-03-22T09:41:37.906Z,14.90
2023-03-22T09:44:08.842Z,15.10
2023-03-22T09:46:40.090Z,15.10
2023-03-22T09:49:14.172Z,15.20
2023-03-22T09:51:44.547Z,15.20
2023-03-22T09:54:19.604Z,15.20
2023-03-22T09:56:52.386Z,15.30
2023-03-22T09:59:25.344Z,15.40
2023-03-22T10:01:59.495Z,15.40
2023-03-22T10:04:55.525Z,15.50
2023-03-22T10:07:31.532Z,15.50
2023-03-22T10:10:17.799Z,15.50
2023-03-22T10:12:54.714Z,15.40
2023-03-22T10:15:29.825Z,15.30
2023-03-22T10:17:59.869Z,15.30
2023-03-22T10:20:37.925Z,15.20
2023-03-22T10:23:11.604Z,15.20
2023-03-22T10:25:42.992Z,15.20
2023-03-22T10:28:19.220Z,15.30
2023-03-22T10:30:53.352Z,15.40
2023-03-22T10:33:30.123Z,15.40
2023-03-22T10:35:59.135Z,15.40
2023-03-22T10:38:29.806Z,15.50
2023-03-22T10:41:00.830Z,15.50
2023-03-22T10:43:32.984Z,15.50
2023-03-22T10:46:04.230Z,15.50
2023-03-22T10:48:36.332Z,15.60
2023-03-22T10:51:05.256Z,15.60
2023-03-22T10:53:41.284Z,15.60
2023-03-22T10:56:15.554Z,15.60
2023-03-22T10:58:43.833Z,15.60
2023-03-22T11:01:13.895Z,15.60
2023-03-22T11:03:44.259Z,15.60
2023-03-22T11:06:14.814Z,15.50
2023-03-22T11:08:46.683Z,15.40
2023-03-22T11:11:21.906Z,15.40
2023-03-22T11:13:57.087Z,15.40
2023-03-22T11:16:25.447Z,15.20
2023-03-22T11:18:55.357Z,15.40
2023-03-22T11:21:29.796Z,15.40
2023-03-22T11:24:01.438Z,15.40
2023-03-22T11:26:35.929Z,15.40
2023-03-22T11:29:13.903Z,15.40
2023-03-22T11:31:58.656Z,15.40
2023-03-22T11:34:30.044Z,15.40
2023-03-22T11:37:01.422Z,15.30
2023-03-22T11:39:30.874Z,15.30
2023-03-22T11:42:03.893Z,15.40
2023-03-22T11:44:35.833Z,15.40
2023-03-22T11:47:08.686Z,15.40
2023-03-22T11:49:43.791Z,15.40
2023-03-22T11:52:17.730Z,15.40
2023-03-22T11:54:47.532Z,15.40
2023-03-22T11:57:21.724Z,15.30
2023-03-22T11:59:58.263Z,15.30
2023-03-22T12:02:29.001Z,15.30
2023-03-22T12:05:05.838Z,15.30
2023-03-22T12:07:37.828Z,15.30
2023-03-22T12:10:14.271Z,15.30
2023-03-22T12:12:48.230Z,15.20
2023-03-22T12:15:20.875Z,15.20
2023-03-22T12:17:55.916Z,15.10
2023-03-22T12:20:35.937Z,15.10
2023-03-22T12:23:13.503Z,15.10
2023-03-22T12:25:43.692Z,15.20
2023-03-22T12:28:18.473Z,15.10
2023-03-22T12:30:49.855Z,15.10
2023-03-22T12:33:22.986Z,15.20
2023-03-22T12:35:56.189Z,15.20
2023-03-22T12:38:31.007Z,15.20
2023-03-22T12:41:04.464Z,15.20
2023-03-22T12:43:50.777Z,15.30
2023-03-22T12:46:22.134Z,15.20
2023-03-22T12:48:53.106Z,15.20
2023-03-22T12:51:21.384Z,15.20
2023-03-22T12:53:54.792Z,15.20
2023-03-22T12:56:25.682Z,15.20
2023-03-22T12:59:00.021Z,15.20
2023-03-22T13:01:35.972Z,15.20
2023-03-22T13:04:30.003Z,15.20
2023-03-22T13:07:09.805Z,15.20
2023-03-22T13:09:44.002Z,15.20
2023-03-22T13:12:32.590Z,15.20
2023-03-22T13:15:31.651Z,15.10
2023-03-22T13:18:31.152Z,15.10
2023-03-22T13:21:12.990Z,15.20
2023-03-22T13:23:57.033Z,15.20
2023-03-22T13:26:33.264Z,15.20
2023-03-22T13:29:08.671Z,15.20
2023-03-22T13:31:42.297Z,15.20
2023-03-22T13:34:18.970Z,15.30
2023-03-22T13:36:53.816Z,15.30
2023-03-22T13:39:25.325Z,15.40
2023-03-22T13:42:15.411Z,15.40
2023-03-22T13:44:46.026Z,15.40
2023-03-22T13:47:39.020Z,15.40
2023-03-22T13:50:17.737Z,15.40
2023-03-22T13:52:55.499Z,15.50
2023-03-22T13:55:50.027Z,15.50
2023-03-22T13:58:37.422Z,15.50
2023-03-22T14:01:08.968Z,15.50
2023-03-22T14:03:45.545Z,15.50
2023-03-22T14:06:22.933Z,15.60
2023-03-22T14:08:55.696Z,15.60
2023-03-22T14:11:29.561Z,15.50
2023-03-22T14:14:04.280Z,15.60
2023-03-22T14:16:42.108Z,15.60
2023-03-22T14:19:17.348Z,15.50
